Time;durP1;ratioP1;P1;durP2;ratioP2;P2;SDS_P1;SDS_P2;PMS_P1;PMS_P2;Temp;Humidity;BMP_temperature;BMP_pressure;BME280_temperature;BME280_humidity;BME280_pressure;Samples;Min_cycle;Max_cycle;Signal;HPM_P1;HPM_P2
2024/03/27 06:06:07;;;;;;;;;;;;;;;4.56;100.00;100248.73;1853401;76;20471;-70
2024/03/27 06:08:35;;;;;;;;;;;;;;;4.27;100.00;100252.56;1824569;77;20109;-74
2024/03/27 06:11:04;;;;;;;;;;;;;;;4.07;100.00;100256.09;1826110;78;20151;-74
2024/03/27 06:13:41;;;;;;;;;;;;;;;3.87;100.00;100265.64;1812486;78;20164;-73
2024/03/27 06:16:05;;;;;;;;;;;;;;;3.70;100.00;100264.76;1823094;77;20147;-72
2024/03/27 06:18:32;;;;;;;;;;;;;;;3.59;100.00;100271.48;1825572;78;20168;-74
2024/03/27 06:21:04;;;;;;;;;;;;;;;3.53;100.00;100269.48;1827952;78;20158;-72
2024/03/27 06:23:34;;;;;;;;;;;;;;;3.47;100.00;100273.48;1820297;77;20405;-72
2024/03/27 06:26:03;;;;;;;;;;;;;;;3.41;100.00;100270.61;1822631;78;20145;-75
2024/03/27 06:28:29;;;;;;;;;;;;;;;3.40;100.00;100271.94;1826473;78;20119;-75
2024/03/27 06:31:01;;;;;;;;;;;;;;;3.40;100.00;100270.20;1801338;78;20467;-75
2024/03/27 06:33:29;;;;;;;;;;;;;;;3.35;100.00;100264.31;1835506;77;20115;-76
2024/03/27 06:35:57;;;;;;;;;;;;;;;3.22;100.00;100274.03;1824496;78;20105;-72
2024/03/27 06:38:23;;;;;;;;;;;;;;;3.08;100.00;100274.80;1819606;77;20168;-74
2024/03/27 06:40:50;;;;;;;;;;;;;;;2.95;100.00;100268.22;1827157;78;20095;-69
2024/03/27 06:43:16;;;;;;;;;;;;;;;2.82;100.00;100277.91;1818284;77;20265;-71
2024/03/27 06:45:46;;;;;;;;;;;;;;;2.79;100.00;100287.00;1830415;78;20120;-71
2024/03/27 06:48:15;;;;;;;;;;;;;;;2.81;100.00;100284.36;1825469;78;20133;-71
2024/03/27 06:50:52;;;;;;;;;;;;;;;2.85;100.00;100280.85;1830739;78;20104;-68
2024/03/27 06:53:27;;;;;;;;;;;;;;;2.88;100.00;100281.64;1825026;78;20136;-72
2024/03/27 06:56:02;;;;;;;;;;;;;;;2.91;100.00;100276.43;1822376;77;20096;-71
2024/03/27 06:58:30;;;;;;;;;;;;;;;2.91;100.00;100284.59;1821028;78;20389;-70
2024/03/27 07:00:58;;;;;;;;;;;;;;;2.88;100.00;100291.08;1829190;78;20112;-70
2024/03/27 07:03:25;;;;;;;;;;;;;;;2.84;100.00;100288.16;1827344;78;20106;-71
2024/03/27 07:05:59;;;;;;;;;;;;;;;2.84;100.00;100288.16;1777642;77;20187;-80
2024/03/27 07:08:26;;;;;;;;;;;;;;;2.89;100.00;100290.20;1771154;79;20434;-71
2024/03/27 07:11:06;;;;;;;;;;;;;;;2.86;100.00;100285.12;1770216;79;20140;-71
2024/03/27 07:13:32;;;;;;;;;;;;;;;2.84;100.00;100294.15;1768975;79;20163;-72
2024/03/27 07:15:59;;;;;;;;;;;;;;;2.88;100.00;100293.65;1775929;79;20106;-73
2024/03/27 07:18:26;;;;;;;;;;;;;;;2.98;100.00;100287.00;1778529;79;20188;-71
2024/03/27 07:20:56;;;;;;;;;;;;;;;3.01;100.00;100292.52;1771803;79;20115;-71
2024/03/27 07:23:27;;;;;;;;;;;;;;;3.09;100.00;100294.50;1773585;79;20191;-73
2024/03/27 07:25:59;;;;;;;;;;;;;;;3.16;100.00;100301.66;1783808;79;20080;-71
2024/03/27 07:28:26;;;;;;;;;;;;;;;3.18;100.00;100305.89;1777578;79;20183;-70
2024/03/27 07:30:53;;;;;;;;;;;;;;;3.25;100.00;100298.85;1742688;80;20073;-70
2024/03/27 07:33:21;;;;;;;;;;;;;;;3.29;100.00;100298.75;1773577;79;20123;-75
2024/03/27 07:35:50;;;;;;;;;;;;;;;3.27;100.00;100304.38;1778070;79;20105;-77
2024/03/27 07:38:18;;;;;;;;;;;;;;;3.25;100.00;100297.13;1776195;79;20111;-70
2024/03/27 07:40:46;;;;;;;;;;;;;;;3.28;100.00;100291.91;1765978;79;20102;-71
2024/03/27 07:43:14;;;;;;;;;;;;;;;3.35;100.00;100293.47;1767459;79;20197;-72
2024/03/27 07:45:41;;;;;;;;;;;;;;;3.42;100.00;100297.20;1732270;79;20245;-72
2024/03/27 07:48:11;;;;;;;;;;;;;;;3.50;100.00;100310.31;1767816;79;20087;-72
2024/03/27 07:50:42;;;;;;;;;;;;;;;3.53;100.00;100308.11;1770246;79;20131;-71
2024/03/27 07:53:09;;;;;;;;;;;;;;;3.60;100.00;100308.34;1728554;79;20190;-72
2024/03/27 07:55:35;;;;;;;;;;;;;;;3.64;100.00;100300.95;1772239;79;20185;-72
2024/03/27 07:58:02;;;;;;;;;;;;;;;3.69;100.00;100305.56;1778181;79;20126;-75
2024/03/27 08:00:31;;;;;;;;;;;;;;;3.72;100.00;100295.19;1765908;79;20854;-74
2024/03/27 08:03:06;;;;;;;;;;;;;;;3.80;100.00;100295.01;1768446;79;20172;-71
2024/03/27 08:05:42;;;;;;;;;;;;;;;3.85;100.00;100295.75;1801548;79;20145;-70
2024/03/27 08:08:09;;;;;;;;;;;;;;;3.85;100.00;100300.45;1809310;79;20095;-72
2024/03/27 08:10:38;;;;;;;;;;;;;;;3.88;100.00;100295.23;1796276;79;20121;-72
2024/03/27 08:13:05;;;;;;;;;;;;;;;3.95;100.00;100281.77;1782691;79;20129;-70
2024/03/27 08:15:31;;;;;;;;;;;;;;;4.02;100.00;100294.42;1800663;78;20177;-75
2024/03/27 08:17:57;;;;;;;;;;;;;;;4.11;100.00;100292.06;1820956;79;20102;-71
2024/03/27 08:20:24;;;;;;;;;;;;;;;4.20;100.00;100291.83;1813490;77;20160;-72
2024/03/27 08:22:50;;;;;;;;;;;;;;;4.27;100.00;100288.66;1804912;79;20129;-72
2024/03/27 08:25:17;;;;;;;;;;;;;;;4.30;100.00;100287.28;1813056;79;20555;-74
2024/03/27 08:27:44;;;;;;;;;;;;;;;4.37;100.00;100288.82;1777997;79;20124;-73
2024/03/27 08:30:14;;;;;;;;;;;;;;;4.47;100.00;100292.81;1784472;79;20149;-72
2024/03/27 08:32:44;;;;;;;;;;;;;;;4.55;100.00;100284.44;1801118;79;20114;-71
2024/03/27 08:35:12;;;;;;;;;;;;;;;4.55;100.00;100292.17;1786987;79;20157;-70
2024/03/27 08:37:38;;;;;;;;;;;;;;;4.52;100.00;100294.83;1797697;79;20094;-71
2024/03/27 08:40:09;;;;;;;;;;;;;;;4.54;100.00;100298.66;1820554;79;20132;-71
2024/03/27 08:42:34;;;;;;;;;;;;;;;4.59;100.00;100292.49;1804470;77;20106;-71
2024/03/27 08:45:01;;;;;;;;;;;;;;;4.63;100.00;100294.10;1813458;79;20109;-71
2024/03/27 08:47:30;;;;;;;;;;;;;;;4.68;100.00;100302.56;1797404;77;20163;-72
2024/03/27 08:49:56;;;;;;;;;;;;;;;4.77;100.00;100295.46;1811231;78;20129;-69
2024/03/27 08:52:24;;;;;;;;;;;;;;;4.82;100.00;100290.54;1812062;78;20155;-71
2024/03/27 08:54:53;;;;;;;;;;;;;;;4.91;100.00;100290.73;1806183;77;20135;-69
2024/03/27 08:57:21;;;;;;;;;;;;;;;5.02;100.00;100285.66;1803583;79;20102;-71
2024/03/27 08:59:47;;;;;;;;;;;;;;;5.22;100.00;100281.63;1802378;78;20147;-70
2024/03/27 09:02:14;;;;;;;;;;;;;;;5.42;100.00;100291.36;1810886;79;20133;-70
2024/03/27 09:04:40;;;;;;;;;;;;;;;5.45;100.00;100284.81;1793168;79;20086;-69
2024/03/27 09:07:09;;;;;;;;;;;;;;;5.46;100.00;100277.02;1800003;78;20105;-72
2024/03/27 09:09:43;;;;;;;;;;;;;;;5.57;100.00;100267.64;1814964;77;20515;-72
2024/03/27 09:12:11;;;;;;;;;;;;;;;5.76;100.00;100260.97;1808368;77;20110;-71
2024/03/27 09:14:38;;;;;;;;;;;;;;;5.86;100.00;100262.81;1811550;77;20112;-72
2024/03/27 09:17:04;;;;;;;;;;;;;;;5.95;100.00;100258.22;1782770;78;20153;-71
2024/03/27 09:19:34;;;;;;;;;;;;;;;5.92;100.00;100276.41;1805984;78;20150;-72
2024/03/27 09:22:03;;;;;;;;;;;;;;;5.87;100.00;100259.33;1814745;78;20115;-73
2024/03/27 09:24:34;;;;;;;;;;;;;;;5.77;100.00;100252.32;1805257;77;20410;-71
2024/03/27 09:27:05;;;;;;;;;;;;;;;5.65;100.00;100244.97;1814774;79;20122;-76
2024/03/27 09:29:35;;;;;;;;;;;;;;;5.57;100.00;100236.65;1790354;79;20158;-71
2024/03/27 09:32:07;;;;;;;;;;;;;;;5.58;100.00;100239.63;1820651;78;20102;-71
2024/03/27 09:34:40;;;;;;;;;;;;;;;5.59;100.00;100233.56;1809591;79;20154;-71
2024/03/27 09:37:11;;;;;;;;;;;;;;;5.53;100.00;100228.15;1792797;79;20131;-71
2024/03/27 09:39:38;;;;;;;;;;;;;;;5.49;100.00;100223.98;1783435;78;20134;-69
2024/03/27 09:42:06;;;;;;;;;;;;;;;5.49;100.00;100212.35;1813357;79;20395;-72
2024/03/27 09:44:38;;;;;;;;;;;;;;;5.51;100.00;100211.02;1763476;80;20140;-73
2024/03/27 09:47:08;;;;;;;;;;;;;;;5.56;100.00;100216.87;1752698;81;20226;-70
2024/03/27 09:49:34;;;;;;;;;;;;;;;5.58;100.00;100213.80;1736119;82;20150;-72
2024/03/27 09:52:01;;;;;;;;;;;;;;;5.63;100.00;100212.72;1736189;82;20111;-70
2024/03/27 09:54:32;;;;;;;;;;;;;;;5.69;100.00;100206.06;1736532;82;20099;-71
2024/03/27 09:57:00;;;;;;;;;;;;;;;5.72;100.00;100205.12;1748452;81;20665;-72
2024/03/27 09:59:29;;;;;;;;;;;;;;;5.76;100.00;100205.42;1767721;80;20131;-71
2024/03/27 10:02:05;;;;;;;;;;;;;;;5.82;100.00;100210.38;1772410;80;20112;-71
2024/03/27 10:04:33;;;;;;;;;;;;;;;5.80;100.00;100204.42;1776457;80;20120;-72
2024/03/27 10:07:00;;;;;;;;;;;;;;;5.82;100.00;100214.26;1789652;80;20206;-72
2024/03/27 10:09:28;;;;;;;;;;;;;;;5.85;100.00;100212.86;1760622;80;20096;-69
2024/03/27 10:12:00;;;;;;;;;;;;;;;5.91;100.00;100213.98;1776419;79;20151;-77
2024/03/27 10:14:30;;;;;;;;;;;;;;;5.97;100.00;100208.61;1770357;79;20118;-70
2024/03/27 10:17:02;;;;;;;;;;;;;;;6.03;100.00;100209.66;1763716;80;20093;-76
2024/03/27 10:19:33;;;;;;;;;;;;;;;6.12;100.00;100205.08;1769169;80;20405;-72
2024/03/27 10:22:03;;;;;;;;;;;;;;;6.18;100.00;100204.41;1773272;80;20132;-73
2024/03/27 10:24:31;;;;;;;;;;;;;;;6.25;100.00;100204.59;1773401;80;20102;-72
2024/03/27 10:27:01;;;;;;;;;;;;;;;6.31;100.00;100202.24;1771639;79;20412;-70
2024/03/27 10:29:30;;;;;;;;;;;;;;;6.35;100.00;100200.78;1768497;80;20110;-73
2024/03/27 10:32:09;;;;;;;;;;;;;;;6.34;100.00;100200.84;1769361;80;20383;-72
2024/03/27 10:34:40;;;;;;;;;;;;;;;6.35;100.00;100194.33;1740360;82;20141;-71
2024/03/27 10:37:07;;;;;;;;;;;;;;;6.42;100.00;100194.07;1751421;80;20111;-72
2024/03/27 10:39:35;;;;;;;;;;;;;;;6.48;100.00;100189.97;1754337;80;20136;-72
2024/03/27 10:42:03;;;;;;;;;;;;;;;6.55;100.00;100192.73;1743561;80;20150;-71
2024/03/27 10:44:30;;;;;;;;;;;;;;;6.61;100.00;100195.94;1754760;80;20102;-72
2024/03/27 10:46:58;;;;;;;;;;;;;;;6.64;100.00;100191.95;1749363;80;20154;-73
2024/03/27 10:49:26;;;;;;;;;;;;;;;6.69;100.00;100191.33;1746170;82;20107;-74
2024/03/27 10:51:53;;;;;;;;;;;;;;;6.71;100.00;100198.19;1758431;81;20109;-71
2024/03/27 10:54:19;;;;;;;;;;;;;;;6.71;100.00;100189.97;1776367;80;20122;-70
2024/03/27 10:56:46;;;;;;;;;;;;;;;6.73;100.00;100194.64;1769739;79;20109;-70
2024/03/27 10:59:16;;;;;;;;;;;;;;;6.77;100.00;100181.98;1778491;79;20105;-71
2024/03/27 11:01:42;;;;;;;;;;;;;;;6.83;100.00;100182.17;1777369;80;20503;-73
2024/03/27 11:04:09;;;;;;;;;;;;;;;6.87;100.00;100182.00;1756665;81;20183;-73
2024/03/27 11:06:36;;;;;;;;;;;;;;;6.88;100.00;100169.90;1750344;80;20128;-75
2024/03/27 11:09:03;;;;;;;;;;;;;;;6.93;100.00;100169.27;1721472;80;20118;-71
2024/03/27 11:11:33;;;;;;;;;;;;;;;7.01;100.00;100164.64;1748322;80;20995;-71
2024/03/27 11:14:02;;;;;;;;;;;;;;;7.08;100.00;100167.39;1770608;80;20113;-74
2024/03/27 11:16:28;;;;;;;;;;;;;;;7.14;100.00;100165.85;1743961;80;20102;-70
2024/03/27 11:18:55;;;;;;;;;;;;;;;7.16;100.00;100158.87;1744406;81;20120;-69
2024/03/27 11:21:27;;;;;;;;;;;;;;;7.20;100.00;100158.27;1721229;81;20146;-69
2024/03/27 11:23:55;;;;;;;;;;;;;;;7.21;100.00;100146.55;1761089;80;20121;-68
2024/03/27 11:26:30;;;;;;;;;;;;;;;7.27;100.00;100148.05;1729974;82;20418;-70
2024/03/27 11:28:57;;;;;;;;;;;;;;;7.31;100.00;100150.45;1752230;81;20118;-70
2024/03/27 11:31:23;;;;;;;;;;;;;;;7.31;100.00;100142.69;1763658;80;20106;-72
2024/03/27 11:33:51;;;;;;;;;;;;;;;7.31;100.00;100163.86;1764342;81;20181;-69
2024/03/27 11:36:25;;;;;;;;;;;;;;;7.31;100.00;100149.16;1734911;81;20165;-71
2024/03/27 11:38:55;;;;;;;;;;;;;;;7.28;100.00;100141.52;1762450;81;20153;-70
2024/03/27 11:41:25;;;;;;;;;;;;;;;7.31;100.00;100141.84;1754024;80;20115;-72
2024/03/27 11:43:51;;;;;;;;;;;;;;;7.33;100.00;100148.64;1763962;80;20157;-69
2024/03/27 11:46:18;;;;;;;;;;;;;;;7.36;100.00;100134.27;1757311;81;20181;-69
2024/03/27 11:48:45;;;;;;;;;;;;;;;7.40;100.00;100127.67;1760958;81;20157;-70
2024/03/27 11:51:13;;;;;;;;;;;;;;;7.51;100.00;100128.92;1754471;80;20461;-70
2024/03/27 11:53:39;;;;;;;;;;;;;;;7.60;100.00;100125.91;1719840;81;20135;-70
2024/03/27 11:56:06;;;;;;;;;;;;;;;7.65;100.00;100126.56;1763707;81;20165;-69
2024/03/27 11:58:33;;;;;;;;;;;;;;;7.68;100.00;100122.55;1754134;80;20094;-72
2024/03/27 12:01:02;;;;;;;;;;;;;;;7.70;100.00;100132.84;1732926;80;20424;-71
2024/03/27 12:03:29;;;;;;;;;;;;;;;7.71;100.00;100124.17;1755420;80;20151;-73
2024/03/27 12:05:56;;;;;;;;;;;;;;;7.68;100.00;100124.30;1769953;80;20095;-70
2024/03/27 12:08:25;;;;;;;;;;;;;;;7.67;100.00;100123.45;1735005;81;20189;-71
2024/03/27 12:10:54;;;;;;;;;;;;;;;7.68;100.00;100124.30;1758674;80;20133;-73
2024/03/27 12:13:21;;;;;;;;;;;;;;;7.70;100.00;100121.19;1759787;80;20162;-71
2024/03/27 12:15:51;;;;;;;;;;;;;;;7.68;100.00;100116.06;1755917;80;20093;-70
2024/03/27 12:18:17;;;;;;;;;;;;;;;7.68;100.00;100125.59;1737106;81;20209;-69
2024/03/27 12:20:44;;;;;;;;;;;;;;;7.61;100.00;100122.87;1759223;80;20145;-70
2024/03/27 12:23:14;;;;;;;;;;;;;;;7.55;100.00;100114.93;1762067;80;20160;-71
2024/03/27 12:25:44;;;;;;;;;;;;;;;7.54;100.00;100126.66;1756599;80;20392;-68
2024/03/27 12:28:10;;;;;;;;;;;;;;;7.53;100.00;100132.74;1761632;80;20405;-71
2024/03/27 12:30:41;;;;;;;;;;;;;;;7.49;100.00;100127.30;1749812;81;20177;-70
2024/03/27 12:33:09;;;;;;;;;;;;;;;7.52;100.00;100128.47;1760555;80;20106;-70
2024/03/27 12:35:38;;;;;;;;;;;;;;;7.58;100.00;100126.91;1760408;80;20461;-71
2024/03/27 12:38:09;;;;;;;;;;;;;;;7.62;100.00;100129.73;1761212;80;20145;-72
2024/03/27 12:40:41;;;;;;;;;;;;;;;7.56;100.00;100130.86;1755945;80;20124;-72
2024/03/27 12:43:08;;;;;;;;;;;;;;;7.56;100.00;100130.86;1748436;80;20110;-75
2024/03/27 12:45:38;;;;;;;;;;;;;;;7.57;100.00;100131.70;1754209;80;20168;-73
2024/03/27 12:48:06;;;;;;;;;;;;;;;7.55;100.00;100129.18;1727554;80;20146;-72
2024/03/27 12:50:34;;;;;;;;;;;;;;;7.55;100.00;100127.88;1734963;80;20138;-73
2024/03/27 12:53:00;;;;;;;;;;;;;;;7.59;100.00;100124.71;1752292;80;20426;-70
2024/03/27 12:55:27;;;;;;;;;;;;;;;7.57;100.00;100128.66;1748320;80;20163;-72
2024/03/27 12:57:55;;;;;;;;;;;;;;;7.53;100.00;100119.33;1760406;80;20102;-75
2024/03/27 13:00:25;;;;;;;;;;;;;;;7.50;100.00;100121.20;1752776;80;20162;-75
2024/03/27 13:03:07;;;;;;;;;;;;;;;7.47;100.00;100120.88;1753619;80;20150;-73
2024/03/27 13:06:03;;;;;;;;;;;;;;;7.46;100.00;100111.42;1761460;80;20093;-72
2024/03/27 13:08:32;;;;;;;;;;;;;;;7.45;100.00;100114.92;1720190;82;20159;-72
2024/03/27 13:10:58;;;;;;;;;;;;;;;7.50;100.00;100115.57;1716224;82;20169;-73
2024/03/27 13:13:27;;;;;;;;;;;;;;;7.54;100.00;100104.63;1725434;82;20113;-76
2024/03/27 13:15:53;;;;;;;;;;;;;;;7.53;100.00;100105.53;1712972;83;20119;-71
2024/03/27 13:18:23;;;;;;;;;;;;;;;7.53;100.00;100101.20;1728157;82;20110;-73
2024/03/27 13:20:51;;;;;;;;;;;;;;;7.52;100.00;100097.38;1723111;82;20156;-71
2024/03/27 13:23:22;;;;;;;;;;;;;;;7.53;100.00;100097.31;1706539;83;20395;-72
2024/03/27 13:25:48;;;;;;;;;;;;;;;7.57;100.00;100100.16;1719685;83;20182;-71
2024/03/27 13:28:17;;;;;;;;;;;;;;;7.60;100.00;100100.00;1725356;82;20180;-72
2024/03/27 13:30:45;;;;;;;;;;;;;;;7.62;100.00;100100.78;1698739;83;20414;-71
2024/03/27 13:33:12;;;;;;;;;;;;;;;7.66;100.00;100099.73;1736108;83;20135;-72
2024/03/27 13:35:41;;;;;;;;;;;;;;;7.71;100.00;100094.36;1731984;83;20259;-73
2024/03/27 13:38:07;;;;;;;;;;;;;;;7.75;100.00;100100.25;1718444;81;20091;-74
2024/03/27 13:40:42;;;;;;;;;;;;;;;7.74;100.00;100098.12;1727351;82;20132;-77
2024/03/27 13:43:08;;;;;;;;;;;;;;;7.72;100.00;100099.09;1722460;83;20139;-72
2024/03/27 13:45:44;;;;;;;;;;;;;;;7.73;100.00;100093.84;1721563;82;20180;-73
2024/03/27 13:48:10;;;;;;;;;;;;;;;7.73;100.00;100094.30;1717467;83;20526;-72
2024/03/27 13:50:37;;;;;;;;;;;;;;;7.75;100.00;100097.20;1721109;82;20116;-74
2024/03/27 13:53:03;;;;;;;;;;;;;;;7.72;100.00;100106.41;1725341;83;20143;-71
2024/03/27 13:55:33;;;;;;;;;;;;;;;7.69;100.00;100105.25;1721572;82;20136;-71
2024/03/27 13:57:59;;;;;;;;;;;;;;;7.66;100.00;100106.22;1724900;82;20187;-72
2024/03/27 14:00:26;;;;;;;;;;;;;;;7.65;100.00;100104.53;1705312;83;20156;-73
2024/03/27 14:05:59;;;;;;;;;;;;;;;7.62;100.00;100105.96;1720723;82;20165;-71
2024/03/27 14:08:26;;;;;;;;;;;;;;;7.53;100.00;100096.02;1756639;80;20142;-72
2024/03/27 14:10:57;;;;;;;;;;;;;;;7.49;100.00;100095.75;1760451;81;21252;-72
2024/03/27 14:13:35;;;;;;;;;;;;;;;7.43;100.00;100094.71;1736742;81;20410;-76
2024/03/27 14:16:03;;;;;;;;;;;;;;;7.39;100.00;100098.79;1755768;81;20414;-73
2024/03/27 14:18:32;;;;;;;;;;;;;;;7.38;100.00;100103.12;1756771;81;20116;-73
2024/03/27 14:21:02;;;;;;;;;;;;;;;7.35;100.00;100096.33;1749900;81;20282;-74
2024/03/27 14:23:34;;;;;;;;;;;;;;;7.30;100.00;100096.12;1747716;81;20132;-73
2024/03/27 14:26:01;;;;;;;;;;;;;;;7.24;100.00;100092.48;1762248;81;20134;-72
2024/03/27 14:28:28;;;;;;;;;;;;;;;7.18;100.00;100097.95;1759121;81;20339;-73
2024/03/27 14:30:54;;;;;;;;;;;;;;;7.12;100.00;100096.91;1758033;81;20110;-71
2024/03/27 14:33:21;;;;;;;;;;;;;;;7.06;100.00;100097.98;1762262;81;20089;-73
2024/03/27 14:35:49;;;;;;;;;;;;;;;7.00;100.00;100102.96;1751222;80;20189;-73
2024/03/27 14:38:15;;;;;;;;;;;;;;;6.93;100.00;100101.97;1751366;81;20435;-75
2024/03/27 14:40:44;;;;;;;;;;;;;;;6.88;100.00;100103.89;1742742;81;20129;-77
2024/03/27 14:43:15;;;;;;;;;;;;;;;6.82;100.00;100110.16;1750553;81;20154;-74
2024/03/27 14:45:41;;;;;;;;;;;;;;;6.80;100.00;100102.90;1755142;81;20158;-72
2024/03/27 14:48:08;;;;;;;;;;;;;;;6.78;100.00;100103.89;1749851;81;20172;-75
2024/03/27 14:50:37;;;;;;;;;;;;;;;6.78;100.00;100112.50;1752962;81;20169;-72
2024/03/27 14:53:03;;;;;;;;;;;;;;;6.80;100.00;100114.55;1756539;81;20164;-75
2024/03/27 14:55:32;;;;;;;;;;;;;;;6.78;100.00;100121.56;1752879;81;20531;-72
2024/03/27 14:57:58;;;;;;;;;;;;;;;6.75;100.00;100121.67;1750423;81;20189;-75
